sensor_id;sensor_type;location;lat;lon;timestamp;P1;durP1;ratioP1;P2;durP2;ratioP2
5912;SDS011;2982;42.684;23.356;2024-03-02T00:02:24;27.92;;;18.27;;
5912;SDS011;2982;42.684;23.356;2024-03-02T00:04:50;28.15;;;18.45;;
5912;SDS011;2982;42.684;23.356;2024-03-02T00:07:15;30.10;;;17.30;;
5912;SDS011;2982;42.684;23.356;2024-03-02T00:09:40;33.57;;;17.77;;
5912;SDS011;2982;42.684;23.356;2024-03-02T00:12:06;33.30;;;17.13;;
5912;SDS011;2982;42.684;23.356;2024-03-02T00:14:32;27.05;;;16.45;;
5912;SDS011;2982;42.684;23.356;2024-03-02T00:16:57;33.60;;;17.87;;
5912;SDS011;2982;42.684;23.356;2024-03-02T00:19:24;33.13;;;19.43;;
5912;SDS011;2982;42.684;23.356;2024-03-02T00:21:49;34.45;;;19.02;;
5912;SDS011;2982;42.684;23.356;2024-03-02T00:27:09;27.50;;;16.52;;
5912;SDS011;2982;42.684;23.356;2024-03-02T00:29:39;29.55;;;15.75;;
5912;SDS011;2982;42.684;23.356;2024-03-02T00:32:09;29.53;;;17.13;;
5912;SDS011;2982;42.684;23.356;2024-03-02T00:34:38;27.10;;;17.65;;
5912;SDS011;2982;42.684;23.356;2024-03-02T00:37:04;28.90;;;16.57;;
5912;SDS011;2982;42.684;23.356;2024-03-02T00:39:29;28.52;;;16.65;;
5912;SDS011;2982;42.684;23.356;2024-03-02T00:41:54;27.35;;;16.17;;
5912;SDS011;2982;42.684;23.356;2024-03-02T00:44:20;25.77;;;16.53;;
5912;SDS011;2982;42.684;23.356;2024-03-02T00:46:50;26.77;;;16.42;;
5912;SDS011;2982;42.684;23.356;2024-03-02T00:49:21;34.92;;;17.10;;
5912;SDS011;2982;42.684;23.356;2024-03-02T00:51:47;22.80;;;15.63;;
5912;SDS011;2982;42.684;23.356;2024-03-02T00:54:14;19.63;;;11.48;;
5912;SDS011;2982;42.684;23.356;2024-03-02T00:56:40;21.90;;;13.90;;
5912;SDS011;2982;42.684;23.356;2024-03-02T00:59:06;20.08;;;11.30;;
5912;SDS011;2982;42.684;23.356;2024-03-02T01:01:32;14.43;;;9.35;;
5912;SDS011;2982;42.684;23.356;2024-03-02T01:03:57;24.17;;;14.13;;
5912;SDS011;2982;42.684;23.356;2024-03-02T01:06:24;23.05;;;13.90;;
5912;SDS011;2982;42.684;23.356;2024-03-02T01:08:49;24.93;;;14.73;;
5912;SDS011;2982;42.684;23.356;2024-03-02T01:11:15;23.80;;;13.77;;
5912;SDS011;2982;42.684;23.356;2024-03-02T01:13:40;22.08;;;14.55;;
5912;SDS011;2982;42.684;23.356;2024-03-02T01:16:06;24.10;;;13.88;;
5912;SDS011;2982;42.684;23.356;2024-03-02T01:18:31;21.92;;;14.13;;
5912;SDS011;2982;42.684;23.356;2024-03-02T01:20:56;24.13;;;14.30;;
5912;SDS011;2982;42.684;23.356;2024-03-02T01:23:22;25.90;;;14.77;;
5912;SDS011;2982;42.684;23.356;2024-03-02T01:25:48;25.07;;;15.13;;
5912;SDS011;2982;42.684;23.356;2024-03-02T01:28:14;28.27;;;15.95;;
5912;SDS011;2982;42.684;23.356;2024-03-02T01:30:39;25.88;;;14.48;;
5912;SDS011;2982;42.684;23.356;2024-03-02T01:33:05;21.30;;;12.65;;
5912;SDS011;2982;42.684;23.356;2024-03-02T01:35:30;22.40;;;14.02;;
5912;SDS011;2982;42.684;23.356;2024-03-02T01:37:56;21.40;;;12.87;;
5912;SDS011;2982;42.684;23.356;2024-03-02T01:40:22;22.50;;;13.93;;
5912;SDS011;2982;42.684;23.356;2024-03-02T01:42:47;18.98;;;13.07;;
5912;SDS011;2982;42.684;23.356;2024-03-02T01:45:12;24.02;;;14.57;;
5912;SDS011;2982;42.684;23.356;2024-03-02T01:47:38;32.30;;;16.20;;
5912;SDS011;2982;42.684;23.356;2024-03-02T01:50:03;24.02;;;15.45;;
5912;SDS011;2982;42.684;23.356;2024-03-02T01:52:29;26.75;;;16.67;;
5912;SDS011;2982;42.684;23.356;2024-03-02T01:54:54;30.23;;;16.52;;
5912;SDS011;2982;42.684;23.356;2024-03-02T01:57:19;27.00;;;15.07;;
5912;SDS011;2982;42.684;23.356;2024-03-02T01:59:46;25.05;;;15.57;;
5912;SDS011;2982;42.684;23.356;2024-03-02T02:02:11;28.42;;;16.70;;
5912;SDS011;2982;42.684;23.356;2024-03-02T02:04:37;28.65;;;17.13;;
5912;SDS011;2982;42.684;23.356;2024-03-02T02:07:02;27.57;;;15.47;;
5912;SDS011;2982;42.684;23.356;2024-03-02T02:09:27;29.33;;;17.37;;
5912;SDS011;2982;42.684;23.356;2024-03-02T02:11:53;29.17;;;16.93;;
5912;SDS011;2982;42.684;23.356;2024-03-02T02:14:18;28.77;;;17.23;;
5912;SDS011;2982;42.684;23.356;2024-03-02T02:16:44;31.20;;;18.40;;
5912;SDS011;2982;42.684;23.356;2024-03-02T02:19:09;32.10;;;18.50;;
5912;SDS011;2982;42.684;23.356;2024-03-02T02:21:34;30.52;;;18.23;;
5912;SDS011;2982;42.684;23.356;2024-03-02T02:24:00;38.00;;;18.97;;
5912;SDS011;2982;42.684;23.356;2024-03-02T02:26:25;28.33;;;17.63;;
5912;SDS011;2982;42.684;23.356;2024-03-02T02:28:51;26.17;;;18.37;;
5912;SDS011;2982;42.684;23.356;2024-03-02T02:31:16;28.40;;;18.10;;
5912;SDS011;2982;42.684;23.356;2024-03-02T02:33:42;32.37;;;19.10;;
5912;SDS011;2982;42.684;23.356;2024-03-02T02:36:07;33.90;;;19.03;;
5912;SDS011;2982;42.684;23.356;2024-03-02T02:38:33;30.08;;;18.00;;
5912;SDS011;2982;42.684;23.356;2024-03-02T02:41:04;35.23;;;18.77;;
5912;SDS011;2982;42.684;23.356;2024-03-02T02:43:29;35.57;;;18.53;;
5912;SDS011;2982;42.684;23.356;2024-03-02T02:45:55;35.90;;;19.07;;
5912;SDS011;2982;42.684;23.356;2024-03-02T02:48:20;38.70;;;18.13;;
5912;SDS011;2982;42.684;23.356;2024-03-02T02:50:45;31.93;;;18.13;;
5912;SDS011;2982;42.684;23.356;2024-03-02T02:53:11;30.33;;;16.93;;
5912;SDS011;2982;42.684;23.356;2024-03-02T02:55:36;32.10;;;18.03;;
5912;SDS011;2982;42.684;23.356;2024-03-02T02:58:01;33.50;;;19.08;;
5912;SDS011;2982;42.684;23.356;2024-03-02T03:00:27;37.20;;;18.87;;
5912;SDS011;2982;42.684;23.356;2024-03-02T03:02:52;27.98;;;17.05;;
5912;SDS011;2982;42.684;23.356;2024-03-02T03:05:18;35.57;;;19.00;;
5912;SDS011;2982;42.684;23.356;2024-03-02T03:07:43;32.72;;;17.40;;
5912;SDS011;2982;42.684;23.356;2024-03-02T03:10:09;31.38;;;17.77;;
5912;SDS011;2982;42.684;23.356;2024-03-02T03:12:35;30.90;;;18.63;;
5912;SDS011;2982;42.684;23.356;2024-03-02T03:15:01;29.63;;;17.77;;
5912;SDS011;2982;42.684;23.356;2024-03-02T03:17:27;29.77;;;17.70;;
5912;SDS011;2982;42.684;23.356;2024-03-02T03:19:52;32.15;;;18.77;;
5912;SDS011;2982;42.684;23.356;2024-03-02T03:22:18;38.28;;;19.73;;
5912;SDS011;2982;42.684;23.356;2024-03-02T03:24:43;33.50;;;18.13;;
5912;SDS011;2982;42.684;23.356;2024-03-02T03:27:09;33.37;;;18.33;;
5912;SDS011;2982;42.684;23.356;2024-03-02T03:29:35;28.13;;;17.20;;
5912;SDS011;2982;42.684;23.356;2024-03-02T03:32:01;33.50;;;17.15;;
5912;SDS011;2982;42.684;23.356;2024-03-02T03:34:27;30.63;;;18.37;;
5912;SDS011;2982;42.684;23.356;2024-03-02T03:36:52;34.05;;;19.63;;
5912;SDS011;2982;42.684;23.356;2024-03-02T03:39:17;29.33;;;16.83;;
5912;SDS011;2982;42.684;23.356;2024-03-02T03:41:43;32.80;;;18.13;;
5912;SDS011;2982;42.684;23.356;2024-03-02T03:44:08;28.97;;;17.53;;
5912;SDS011;2982;42.684;23.356;2024-03-02T03:46:33;30.37;;;18.00;;
5912;SDS011;2982;42.684;23.356;2024-03-02T03:48:59;30.47;;;18.10;;
5912;SDS011;2982;42.684;23.356;2024-03-02T03:51:24;32.22;;;17.13;;
5912;SDS011;2982;42.684;23.356;2024-03-02T03:53:49;29.03;;;16.83;;
5912;SDS011;2982;42.684;23.356;2024-03-02T03:56:15;33.75;;;18.70;;
5912;SDS011;2982;42.684;23.356;2024-03-02T03:58:40;35.43;;;19.50;;
5912;SDS011;2982;42.684;23.356;2024-03-02T04:01:05;32.65;;;18.48;;
5912;SDS011;2982;42.684;23.356;2024-03-02T04:03:31;30.77;;;18.25;;
5912;SDS011;2982;42.684;23.356;2024-03-02T04:05:56;32.15;;;16.48;;
5912;SDS011;2982;42.684;23.356;2024-03-02T04:08:21;29.38;;;17.48;;
5912;SDS011;2982;42.684;23.356;2024-03-02T04:10:47;34.67;;;18.77;;
5912;SDS011;2982;42.684;23.356;2024-03-02T04:13:12;33.92;;;18.33;;
5912;SDS011;2982;42.684;23.356;2024-03-02T04:15:37;30.00;;;17.50;;
5912;SDS011;2982;42.684;23.356;2024-03-02T04:18:03;29.48;;;17.27;;
5912;SDS011;2982;42.684;23.356;2024-03-02T04:20:29;31.77;;;18.50;;
5912;SDS011;2982;42.684;23.356;2024-03-02T04:22:54;32.80;;;18.02;;
5912;SDS011;2982;42.684;23.356;2024-03-02T04:25:19;32.30;;;18.38;;
5912;SDS011;2982;42.684;23.356;2024-03-02T04:27:44;35.23;;;19.60;;
5912;SDS011;2982;42.684;23.356;2024-03-02T04:30:10;29.88;;;18.05;;
5912;SDS011;2982;42.684;23.356;2024-03-02T04:32:36;40.05;;;20.15;;
5912;SDS011;2982;42.684;23.356;2024-03-02T04:35:01;33.38;;;17.58;;
5912;SDS011;2982;42.684;23.356;2024-03-02T04:37:26;32.22;;;18.20;;
5912;SDS011;2982;42.684;23.356;2024-03-02T04:39:52;32.60;;;17.58;;
5912;SDS011;2982;42.684;23.356;2024-03-02T04:42:17;33.58;;;18.35;;
5912;SDS011;2982;42.684;23.356;2024-03-02T04:44:42;30.07;;;18.27;;
5912;SDS011;2982;42.684;23.356;2024-03-02T04:47:08;38.53;;;18.55;;
5912;SDS011;2982;42.684;23.356;2024-03-02T04:49:33;27.80;;;16.90;;
5912;SDS011;2982;42.684;23.356;2024-03-02T04:51:58;32.72;;;18.02;;
5912;SDS011;2982;42.684;23.356;2024-03-02T04:54:24;33.70;;;18.27;;
5912;SDS011;2982;42.684;23.356;2024-03-02T04:56:49;34.30;;;19.48;;
5912;SDS011;2982;42.684;23.356;2024-03-02T04:59:15;32.85;;;18.38;;
5912;SDS011;2982;42.684;23.356;2024-03-02T05:01:43;36.05;;;19.70;;
5912;SDS011;2982;42.684;23.356;2024-03-02T05:04:09;37.33;;;18.50;;
5912;SDS011;2982;42.684;23.356;2024-03-02T05:06:36;32.47;;;18.80;;
5912;SDS011;2982;42.684;23.356;2024-03-02T05:09:01;31.88;;;19.38;;
5912;SDS011;2982;42.684;23.356;2024-03-02T05:11:27;34.53;;;18.33;;
5912;SDS011;2982;42.684;23.356;2024-03-02T05:13:52;36.05;;;18.77;;
5912;SDS011;2982;42.684;23.356;2024-03-02T05:16:17;32.75;;;17.73;;
5912;SDS011;2982;42.684;23.356;2024-03-02T05:18:43;34.90;;;18.33;;
5912;SDS011;2982;42.684;23.356;2024-03-02T05:21:08;35.73;;;19.83;;
5912;SDS011;2982;42.684;23.356;2024-03-02T05:23:33;40.80;;;19.20;;
5912;SDS011;2982;42.684;23.356;2024-03-02T05:25:58;29.83;;;17.60;;
5912;SDS011;2982;42.684;23.356;2024-03-02T05:28:24;31.80;;;17.92;;
5912;SDS011;2982;42.684;23.356;2024-03-02T05:30:49;36.17;;;18.58;;
5912;SDS011;2982;42.684;23.356;2024-03-02T05:33:15;34.05;;;17.23;;
5912;SDS011;2982;42.684;23.356;2024-03-02T05:35:40;30.95;;;17.88;;
5912;SDS011;2982;42.684;23.356;2024-03-02T05:38:05;32.87;;;19.00;;
5912;SDS011;2982;42.684;23.356;2024-03-02T05:40:30;29.83;;;16.98;;
5912;SDS011;2982;42.684;23.356;2024-03-02T05:42:56;32.13;;;18.20;;
5912;SDS011;2982;42.684;23.356;2024-03-02T05:45:21;37.65;;;17.42;;
5912;SDS011;2982;42.684;23.356;2024-03-02T05:47:46;34.13;;;17.73;;
5912;SDS011;2982;42.684;23.356;2024-03-02T05:50:12;35.53;;;18.65;;
5912;SDS011;2982;42.684;23.356;2024-03-02T05:52:37;39.45;;;19.67;;
5912;SDS011;2982;42.684;23.356;2024-03-02T05:55:03;32.42;;;17.92;;
5912;SDS011;2982;42.684;23.356;2024-03-02T05:57:28;31.03;;;18.43;;
5912;SDS011;2982;42.684;23.356;2024-03-02T05:59:53;36.78;;;18.15;;
5912;SDS011;2982;42.684;23.356;2024-03-02T06:02:19;30.10;;;17.17;;
5912;SDS011;2982;42.684;23.356;2024-03-02T06:04:44;38.47;;;18.45;;
5912;SDS011;2982;42.684;23.356;2024-03-02T06:07:09;33.40;;;19.07;;
5912;SDS011;2982;42.684;23.356;2024-03-02T06:09:35;31.90;;;17.83;;
5912;SDS011;2982;42.684;23.356;2024-03-02T06:12:00;38.10;;;19.38;;
5912;SDS011;2982;42.684;23.356;2024-03-02T06:14:25;35.25;;;18.50;;
5912;SDS011;2982;42.684;23.356;2024-03-02T06:16:51;32.53;;;18.15;;
5912;SDS011;2982;42.684;23.356;2024-03-02T06:19:16;38.70;;;19.30;;
5912;SDS011;2982;42.684;23.356;2024-03-02T06:21:41;31.27;;;18.45;;
5912;SDS011;2982;42.684;23.356;2024-03-02T06:24:07;37.40;;;18.67;;
5912;SDS011;2982;42.684;23.356;2024-03-02T06:26:32;38.00;;;19.48;;
5912;SDS011;2982;42.684;23.356;2024-03-02T06:28:57;36.67;;;18.33;;
5912;SDS011;2982;42.684;23.356;2024-03-02T06:31:23;35.35;;;19.05;;
5912;SDS011;2982;42.684;23.356;2024-03-02T06:33:48;31.42;;;18.38;;
5912;SDS011;2982;42.684;23.356;2024-03-02T06:36:13;32.55;;;17.52;;
5912;SDS011;2982;42.684;23.356;2024-03-02T06:38:39;36.85;;;18.88;;
5912;SDS011;2982;42.684;23.356;2024-03-02T06:41:04;30.70;;;17.55;;
5912;SDS011;2982;42.684;23.356;2024-03-02T06:43:29;41.90;;;20.48;;
5912;SDS011;2982;42.684;23.356;2024-03-02T06:45:55;37.88;;;19.98;;
5912;SDS011;2982;42.684;23.356;2024-03-02T06:48:21;33.92;;;19.25;;
5912;SDS011;2982;42.684;23.356;2024-03-02T06:50:46;36.78;;;20.35;;
5912;SDS011;2982;42.684;23.356;2024-03-02T06:53:12;44.08;;;21.08;;
5912;SDS011;2982;42.684;23.356;2024-03-02T06:55:37;33.15;;;18.15;;
5912;SDS011;2982;42.684;23.356;2024-03-02T06:58:03;40.30;;;20.38;;
5912;SDS011;2982;42.684;23.356;2024-03-02T07:00:28;46.08;;;20.90;;
5912;SDS011;2982;42.684;23.356;2024-03-02T07:02:54;39.83;;;19.13;;
5912;SDS011;2982;42.684;23.356;2024-03-02T07:05:19;37.22;;;19.90;;
5912;SDS011;2982;42.684;23.356;2024-03-02T07:07:44;39.47;;;20.40;;
5912;SDS011;2982;42.684;23.356;2024-03-02T07:10:10;38.10;;;19.20;;
5912;SDS011;2982;42.684;23.356;2024-03-02T07:12:35;44.78;;;20.02;;
5912;SDS011;2982;42.684;23.356;2024-03-02T07:15:00;40.43;;;20.53;;
5912;SDS011;2982;42.684;23.356;2024-03-02T07:17:26;41.13;;;19.00;;
5912;SDS011;2982;42.684;23.356;2024-03-02T07:19:51;40.17;;;20.67;;
5912;SDS011;2982;42.684;23.356;2024-03-02T07:22:17;42.97;;;20.83;;
5912;SDS011;2982;42.684;23.356;2024-03-02T07:24:42;42.73;;;20.70;;
5912;SDS011;2982;42.684;23.356;2024-03-02T07:27:09;35.42;;;19.40;;
5912;SDS011;2982;42.684;23.356;2024-03-02T07:29:35;37.25;;;19.83;;
5912;SDS011;2982;42.684;23.356;2024-03-02T07:32:01;43.97;;;19.87;;
5912;SDS011;2982;42.684;23.356;2024-03-02T07:34:26;40.08;;;19.77;;
5912;SDS011;2982;42.684;23.356;2024-03-02T07:36:52;41.03;;;18.87;;
5912;SDS011;2982;42.684;23.356;2024-03-02T07:39:18;35.50;;;17.88;;
5912;SDS011;2982;42.684;23.356;2024-03-02T07:41:43;36.97;;;17.35;;
5912;SDS011;2982;42.684;23.356;2024-03-02T07:44:10;38.20;;;17.70;;
5912;SDS011;2982;42.684;23.356;2024-03-02T07:46:36;38.78;;;17.35;;
5912;SDS011;2982;42.684;23.356;2024-03-02T07:49:01;40.45;;;18.10;;
5912;SDS011;2982;42.684;23.356;2024-03-02T07:51:26;36.63;;;18.67;;
5912;SDS011;2982;42.684;23.356;2024-03-02T07:53:52;44.97;;;20.05;;
5912;SDS011;2982;42.684;23.356;2024-03-02T07:56:17;36.45;;;18.15;;
5912;SDS011;2982;42.684;23.356;2024-03-02T07:58:42;42.05;;;18.67;;
5912;SDS011;2982;42.684;23.356;2024-03-02T08:01:08;33.85;;;18.85;;
5912;SDS011;2982;42.684;23.356;2024-03-02T08:03:33;33.10;;;17.90;;
5912;SDS011;2982;42.684;23.356;2024-03-02T08:05:59;37.63;;;17.65;;
5912;SDS011;2982;42.684;23.356;2024-03-02T08:08:24;37.03;;;19.23;;
5912;SDS011;2982;42.684;23.356;2024-03-02T08:10:51;36.35;;;19.35;;
5912;SDS011;2982;42.684;23.356;2024-03-02T08:13:16;40.72;;;19.98;;
5912;SDS011;2982;42.684;23.356;2024-03-02T08:15:41;40.13;;;18.33;;
5912;SDS011;2982;42.684;23.356;2024-03-02T08:18:07;42.20;;;18.38;;
5912;SDS011;2982;42.684;23.356;2024-03-02T08:20:32;40.83;;;19.83;;
5912;SDS011;2982;42.684;23.356;2024-03-02T08:22:57;38.35;;;19.08;;
5912;SDS011;2982;42.684;23.356;2024-03-02T08:25:23;36.80;;;17.83;;
5912;SDS011;2982;42.684;23.356;2024-03-02T08:27:48;38.85;;;19.35;;
5912;SDS011;2982;42.684;23.356;2024-03-02T08:30:14;34.08;;;18.67;;
5912;SDS011;2982;42.684;23.356;2024-03-02T08:32:39;39.22;;;19.67;;
5912;SDS011;2982;42.684;23.356;2024-03-02T08:35:05;40.08;;;20.30;;
5912;SDS011;2982;42.684;23.356;2024-03-02T08:37:31;38.33;;;19.50;;
5912;SDS011;2982;42.684;23.356;2024-03-02T08:39:56;40.63;;;19.77;;
5912;SDS011;2982;42.684;23.356;2024-03-02T08:42:22;40.13;;;20.33;;
5912;SDS011;2982;42.684;23.356;2024-03-02T08:44:47;40.90;;;20.88;;
5912;SDS011;2982;42.684;23.356;2024-03-02T08:47:13;41.63;;;20.55;;
5912;SDS011;2982;42.684;23.356;2024-03-02T08:49:38;43.95;;;20.77;;
5912;SDS011;2982;42.684;23.356;2024-03-02T08:52:04;34.33;;;19.38;;
5912;SDS011;2982;42.684;23.356;2024-03-02T08:54:29;41.17;;;19.55;;
5912;SDS011;2982;42.684;23.356;2024-03-02T08:56:54;43.13;;;20.98;;
5912;SDS011;2982;42.684;23.356;2024-03-02T08:59:20;35.20;;;19.95;;
5912;SDS011;2982;42.684;23.356;2024-03-02T09:01:45;36.83;;;20.42;;
5912;SDS011;2982;42.684;23.356;2024-03-02T09:04:11;40.72;;;20.73;;
5912;SDS011;2982;42.684;23.356;2024-03-02T09:06:36;36.33;;;18.77;;
5912;SDS011;2982;42.684;23.356;2024-03-02T09:09:01;33.60;;;18.08;;
5912;SDS011;2982;42.684;23.356;2024-03-02T09:11:27;35.20;;;19.27;;
5912;SDS011;2982;42.684;23.356;2024-03-02T09:13:52;28.92;;;18.70;;
5912;SDS011;2982;42.684;23.356;2024-03-02T09:16:18;34.95;;;18.48;;
5912;SDS011;2982;42.684;23.356;2024-03-02T09:18:43;36.47;;;20.52;;
5912;SDS011;2982;42.684;23.356;2024-03-02T09:21:09;35.95;;;19.05;;
5912;SDS011;2982;42.684;23.356;2024-03-02T09:23:34;35.90;;;18.60;;
5912;SDS011;2982;42.684;23.356;2024-03-02T09:25:59;29.98;;;18.00;;
5912;SDS011;2982;42.684;23.356;2024-03-02T09:28:25;32.55;;;15.80;;
5912;SDS011;2982;42.684;23.356;2024-03-02T09:30:50;27.67;;;16.38;;
5912;SDS011;2982;42.684;23.356;2024-03-02T09:33:15;23.83;;;15.15;;
5912;SDS011;2982;42.684;23.356;2024-03-02T09:35:41;27.52;;;15.77;;
5912;SDS011;2982;42.684;23.356;2024-03-02T09:38:06;28.55;;;16.77;;
5912;SDS011;2982;42.684;23.356;2024-03-02T09:40:31;30.10;;;17.08;;
5912;SDS011;2982;42.684;23.356;2024-03-02T09:42:57;26.85;;;16.13;;
5912;SDS011;2982;42.684;23.356;2024-03-02T09:45:23;29.98;;;17.33;;
5912;SDS011;2982;42.684;23.356;2024-03-02T09:47:50;31.10;;;17.08;;
5912;SDS011;2982;42.684;23.356;2024-03-02T09:50:15;33.22;;;17.80;;
5912;SDS011;2982;42.684;23.356;2024-03-02T09:52:42;36.75;;;21.20;;
5912;SDS011;2982;42.684;23.356;2024-03-02T09:55:08;29.67;;;17.48;;
5912;SDS011;2982;42.684;23.356;2024-03-02T09:57:33;35.00;;;18.33;;
5912;SDS011;2982;42.684;23.356;2024-03-02T09:59:59;28.63;;;16.80;;
5912;SDS011;2982;42.684;23.356;2024-03-02T10:02:24;29.60;;;17.25;;
5912;SDS011;2982;42.684;23.356;2024-03-02T10:04:49;28.70;;;16.77;;
5912;SDS011;2982;42.684;23.356;2024-03-02T10:07:15;28.15;;;16.67;;
5912;SDS011;2982;42.684;23.356;2024-03-02T10:09:43;30.67;;;17.25;;
5912;SDS011;2982;42.684;23.356;2024-03-02T10:12:13;26.42;;;15.23;;
5912;SDS011;2982;42.684;23.356;2024-03-02T10:14:39;31.80;;;16.92;;
5912;SDS011;2982;42.684;23.356;2024-03-02T10:17:12;28.55;;;17.30;;
5912;SDS011;2982;42.684;23.356;2024-03-02T10:19:39;29.92;;;16.75;;
5912;SDS011;2982;42.684;23.356;2024-03-02T10:22:05;25.88;;;14.63;;
5912;SDS011;2982;42.684;23.356;2024-03-02T10:24:51;30.02;;;16.27;;
5912;SDS011;2982;42.684;23.356;2024-03-02T10:27:17;24.70;;;16.77;;
5912;SDS011;2982;42.684;23.356;2024-03-02T10:29:46;30.75;;;17.55;;
5912;SDS011;2982;42.684;23.356;2024-03-02T10:32:12;29.52;;;17.52;;
5912;SDS011;2982;42.684;23.356;2024-03-02T10:34:41;28.17;;;17.05;;
5912;SDS011;2982;42.684;23.356;2024-03-02T10:37:10;35.40;;;17.35;;
5912;SDS011;2982;42.684;23.356;2024-03-02T10:39:36;20.25;;;14.80;;
5912;SDS011;2982;42.684;23.356;2024-03-02T10:42:02;29.33;;;15.50;;
5912;SDS011;2982;42.684;23.356;2024-03-02T10:44:28;27.92;;;16.33;;
5912;SDS011;2982;42.684;23.356;2024-03-02T10:46:55;22.88;;;14.60;;
5912;SDS011;2982;42.684;23.356;2024-03-02T10:49:22;28.50;;;15.30;;
5912;SDS011;2982;42.684;23.356;2024-03-02T10:51:49;27.58;;;15.30;;
5912;SDS011;2982;42.684;23.356;2024-03-02T10:54:14;24.88;;;15.98;;
5912;SDS011;2982;42.684;23.356;2024-03-02T10:56:40;26.42;;;14.43;;
5912;SDS011;2982;42.684;23.356;2024-03-02T11:02:01;35.17;;;17.13;;
5912;SDS011;2982;42.684;23.356;2024-03-02T11:04:28;26.27;;;15.45;;
5912;SDS011;2982;42.684;23.356;2024-03-02T11:06:59;24.52;;;15.35;;
5912;SDS011;2982;42.684;23.356;2024-03-02T11:09:28;24.80;;;16.88;;
5912;SDS011;2982;42.684;23.356;2024-03-02T11:12:02;26.63;;;15.93;;
5912;SDS011;2982;42.684;23.356;2024-03-02T11:14:31;25.55;;;15.38;;
5912;SDS011;2982;42.684;23.356;2024-03-02T11:16:57;23.92;;;15.07;;
5912;SDS011;2982;42.684;23.356;2024-03-02T11:19:23;23.77;;;14.25;;
5912;SDS011;2982;42.684;23.356;2024-03-02T11:21:50;23.42;;;14.18;;
5912;SDS011;2982;42.684;23.356;2024-03-02T11:26:47;24.25;;;15.38;;
5912;SDS011;2982;42.684;23.356;2024-03-02T11:32:03;26.48;;;15.18;;
5912;SDS011;2982;42.684;23.356;2024-03-02T11:34:29;25.20;;;15.52;;
5912;SDS011;2982;42.684;23.356;2024-03-02T11:36:55;28.77;;;15.73;;
5912;SDS011;2982;42.684;23.356;2024-03-02T11:39:20;28.25;;;15.70;;
5912;SDS011;2982;42.684;23.356;2024-03-02T11:41:46;25.60;;;15.50;;
5912;SDS011;2982;42.684;23.356;2024-03-02T11:44:11;30.58;;;17.27;;
5912;SDS011;2982;42.684;23.356;2024-03-02T11:46:39;27.45;;;16.67;;
5912;SDS011;2982;42.684;23.356;2024-03-02T11:49:04;28.60;;;16.60;;
5912;SDS011;2982;42.684;23.356;2024-03-02T11:51:30;26.55;;;15.63;;
5912;SDS011;2982;42.684;23.356;2024-03-02T11:53:58;26.52;;;14.15;;
5912;SDS011;2982;42.684;23.356;2024-03-02T11:56:24;20.77;;;13.07;;
5912;SDS011;2982;42.684;23.356;2024-03-02T11:58:52;21.88;;;12.75;;
5912;SDS011;2982;42.684;23.356;2024-03-02T12:01:18;19.83;;;13.73;;
5912;SDS011;2982;42.684;23.356;2024-03-02T12:03:44;20.42;;;12.18;;
5912;SDS011;2982;42.684;23.356;2024-03-02T12:06:10;21.17;;;12.95;;
5912;SDS011;2982;42.684;23.356;2024-03-02T12:08:36;22.70;;;13.15;;
5912;SDS011;2982;42.684;23.356;2024-03-02T12:11:02;17.98;;;12.57;;
5912;SDS011;2982;42.684;23.356;2024-03-02T12:13:28;22.30;;;15.07;;
5912;SDS011;2982;42.684;23.356;2024-03-02T12:15:54;24.42;;;15.57;;
5912;SDS011;2982;42.684;23.356;2024-03-02T12:18:20;21.45;;;13.45;;
5912;SDS011;2982;42.684;23.356;2024-03-02T12:20:45;19.38;;;10.50;;
5912;SDS011;2982;42.684;23.356;2024-03-02T12:23:10;19.25;;;11.55;;
5912;SDS011;2982;42.684;23.356;2024-03-02T12:25:36;19.48;;;11.68;;
5912;SDS011;2982;42.684;23.356;2024-03-02T12:28:01;19.98;;;11.43;;
5912;SDS011;2982;42.684;23.356;2024-03-02T12:30:28;18.80;;;12.55;;
5912;SDS011;2982;42.684;23.356;2024-03-02T12:32:55;17.92;;;12.30;;
5912;SDS011;2982;42.684;23.356;2024-03-02T12:35:21;17.23;;;12.40;;
5912;SDS011;2982;42.684;23.356;2024-03-02T12:37:49;18.13;;;12.75;;
5912;SDS011;2982;42.684;23.356;2024-03-02T12:40:16;22.92;;;12.43;;
5912;SDS011;2982;42.684;23.356;2024-03-02T12:42:43;14.00;;;11.15;;
5912;SDS011;2982;42.684;23.356;2024-03-02T12:45:10;19.25;;;12.85;;
5912;SDS011;2982;42.684;23.356;2024-03-02T12:47:36;16.77;;;11.88;;
5912;SDS011;2982;42.684;23.356;2024-03-02T12:50:02;20.65;;;11.93;;
5912;SDS011;2982;42.684;23.356;2024-03-02T12:52:29;15.50;;;11.05;;
5912;SDS011;2982;42.684;23.356;2024-03-02T12:54:54;17.58;;;11.60;;
5912;SDS011;2982;42.684;23.356;2024-03-02T12:57:20;19.63;;;11.93;;
5912;SDS011;2982;42.684;23.356;2024-03-02T12:59:46;18.13;;;11.73;;
5912;SDS011;2982;42.684;23.356;2024-03-02T13:02:18;12.93;;;10.45;;
5912;SDS011;2982;42.684;23.356;2024-03-02T13:04:44;15.00;;;10.73;;
5912;SDS011;2982;42.684;23.356;2024-03-02T13:07:09;13.82;;;10.82;;
5912;SDS011;2982;42.684;23.356;2024-03-02T13:09:35;13.73;;;11.32;;
5912;SDS011;2982;42.684;23.356;2024-03-02T13:12:02;15.65;;;11.25;;
5912;SDS011;2982;42.684;23.356;2024-03-02T13:14:28;19.05;;;12.40;;
5912;SDS011;2982;42.684;23.356;2024-03-02T13:16:53;13.00;;;10.98;;
5912;SDS011;2982;42.684;23.356;2024-03-02T13:19:18;16.58;;;10.90;;
5912;SDS011;2982;42.684;23.356;2024-03-02T13:21:44;16.50;;;11.60;;
5912;SDS011;2982;42.684;23.356;2024-03-02T13:24:09;13.95;;;10.63;;
5912;SDS011;2982;42.684;23.356;2024-03-02T13:26:35;16.10;;;11.90;;
5912;SDS011;2982;42.684;23.356;2024-03-02T13:29:00;15.35;;;11.90;;
5912;SDS011;2982;42.684;23.356;2024-03-02T13:31:26;19.23;;;13.13;;
5912;SDS011;2982;42.684;23.356;2024-03-02T13:33:51;18.15;;;11.55;;
5912;SDS011;2982;42.684;23.356;2024-03-02T13:36:17;20.25;;;12.60;;
5912;SDS011;2982;42.684;23.356;2024-03-02T13:38:42;17.70;;;12.27;;
5912;SDS011;2982;42.684;23.356;2024-03-02T13:41:07;18.38;;;11.73;;
5912;SDS011;2982;42.684;23.356;2024-03-02T13:43:33;17.90;;;13.57;;
5912;SDS011;2982;42.684;23.356;2024-03-02T13:45:58;15.63;;;12.65;;
5912;SDS011;2982;42.684;23.356;2024-03-02T13:48:24;18.30;;;12.73;;
5912;SDS011;2982;42.684;23.356;2024-03-02T13:50:49;19.00;;;12.20;;
5912;SDS011;2982;42.684;23.356;2024-03-02T13:53:14;17.95;;;11.25;;
5912;SDS011;2982;42.684;23.356;2024-03-02T13:55:40;21.98;;;13.20;;
5912;SDS011;2982;42.684;23.356;2024-03-02T13:58:05;16.83;;;12.27;;
5912;SDS011;2982;42.684;23.356;2024-03-02T14:00:31;15.02;;;10.65;;
5912;SDS011;2982;42.684;23.356;2024-03-02T14:02:57;15.95;;;11.88;;
5912;SDS011;2982;42.684;23.356;2024-03-02T14:05:22;12.88;;;11.45;;
5912;SDS011;2982;42.684;23.356;2024-03-02T14:07:47;16.50;;;12.07;;
5912;SDS011;2982;42.684;23.356;2024-03-02T14:10:13;17.27;;;12.63;;
5912;SDS011;2982;42.684;23.356;2024-03-02T14:12:38;16.30;;;13.05;;
5912;SDS011;2982;42.684;23.356;2024-03-02T14:15:04;17.73;;;13.10;;
5912;SDS011;2982;42.684;23.356;2024-03-02T14:17:29;18.52;;;12.68;;
5912;SDS011;2982;42.684;23.356;2024-03-02T14:19:55;18.75;;;13.65;;
5912;SDS011;2982;42.684;23.356;2024-03-02T14:22:20;19.30;;;13.93;;
5912;SDS011;2982;42.684;23.356;2024-03-02T14:24:46;17.88;;;12.65;;
5912;SDS011;2982;42.684;23.356;2024-03-02T14:27:11;21.00;;;14.50;;
5912;SDS011;2982;42.684;23.356;2024-03-02T14:29:37;22.30;;;14.55;;
5912;SDS011;2982;42.684;23.356;2024-03-02T14:32:06;21.92;;;14.38;;
5912;SDS011;2982;42.684;23.356;2024-03-02T14:34:31;16.52;;;12.13;;
5912;SDS011;2982;42.684;23.356;2024-03-02T14:36:57;21.80;;;14.30;;